createdAt,value
2023-04-04T00:00:53.721Z,10.58
2023-04-04T00:03:21.634Z,10.50
2023-04-04T00:05:52.373Z,10.48
2023-04-04T00:08:21.348Z,10.42
2023-04-04T00:10:49.139Z,10.36
2023-04-04T00:13:17.208Z,10.31
2023-04-04T00:15:45.310Z,10.25
2023-04-04T00:18:13.517Z,10.18
2023-04-04T00:20:41.425Z,10.14
2023-04-04T00:23:11.224Z,10.08
2023-04-04T00:25:39.125Z,10.02
2023-04-04T00:28:07.221Z,9.99
2023-04-04T00:30:35.262Z,9.95
2023-04-04T00:33:03.662Z,9.90
2023-04-04T00:35:31.300Z,9.87
2023-04-04T00:37:58.853Z,9.85
2023-04-04T00:40:26.764Z,9.81
2023-04-04T00:42:55.454Z,9.80
2023-04-04T00:45:23.253Z,9.73
2023-04-04T00:47:51.278Z,9.71
2023-04-04T00:50:19.639Z,9.68
2023-04-04T00:52:47.797Z,9.67
2023-04-04T00:55:16.668Z,9.65
2023-04-04T00:57:44.800Z,9.58
2023-04-04T01:00:12.765Z,9.52
2023-04-04T01:02:40.987Z,9.49
2023-04-04T01:05:09.385Z,9.48
2023-04-04T01:07:37.298Z,9.46
2023-04-04T01:10:06.614Z,9.48
2023-04-04T01:12:34.180Z,9.48
2023-04-04T01:15:02.496Z,9.45
2023-04-04T01:17:30.686Z,9.43
2023-04-04T01:20:08.114Z,9.41
2023-04-04T01:22:36.185Z,9.35
2023-04-04T01:25:03.975Z,9.33
2023-04-04T01:27:31.549Z,9.31
2023-04-04T01:29:59.695Z,9.23
2023-04-04T01:32:51.704Z,9.23
2023-04-04T01:35:21.553Z,9.21
2023-04-04T01:38:06.928Z,9.18
2023-04-04T01:40:39.950Z,9.16
2023-04-04T01:43:07.956Z,9.10
2023-04-04T01:45:36.373Z,9.09
2023-04-04T01:48:04.712Z,9.07
2023-04-04T01:50:32.050Z,9.05
2023-04-04T01:53:00.201Z,9.04
2023-04-04T01:55:28.117Z,9.02
2023-04-04T01:57:55.504Z,8.99
2023-04-04T02:00:23.746Z,9.01
2023-04-04T02:02:51.737Z,8.99
2023-04-04T02:05:19.335Z,8.93
2023-04-04T02:07:50.844Z,8.95
2023-04-04T02:10:18.620Z,8.95
2023-04-04T02:12:47.782Z,8.87
2023-04-04T02:15:16.042Z,8.85
2023-04-04T02:17:48.620Z,8.90
2023-04-04T02:20:19.345Z,8.90
2023-04-04T02:23:14.881Z,8.89
2023-04-04T02:25:42.961Z,8.87
2023-04-04T02:28:11.795Z,8.84
2023-04-04T02:30:40.502Z,8.80
2023-04-04T02:33:08.892Z,8.78
2023-04-04T02:35:40.892Z,8.75
2023-04-04T02:38:08.851Z,8.70
2023-04-04T02:40:40.081Z,8.70
2023-04-04T02:43:07.885Z,8.69
2023-04-04T02:45:35.419Z,8.73
2023-04-04T02:48:03.948Z,8.65
2023-04-04T02:50:31.882Z,8.61
2023-04-04T02:53:03.664Z,8.55
2023-04-04T02:55:31.510Z,8.50
2023-04-04T02:57:59.257Z,8.43
2023-04-04T03:00:27.339Z,8.32
2023-04-04T03:02:55.916Z,8.23
2023-04-04T03:05:26.982Z,8.15
2023-04-04T03:07:59.112Z,8.08
2023-04-04T03:10:29.969Z,8.01
2023-04-04T03:12:57.709Z,7.98
2023-04-04T03:15:26.591Z,7.96
2023-04-04T03:17:54.055Z,7.90
2023-04-04T03:20:22.197Z,7.83
2023-04-04T03:22:49.749Z,7.80
2023-04-04T03:25:17.728Z,7.70
2023-04-04T03:27:45.485Z,7.44
2023-04-04T03:30:14.373Z,7.25
2023-04-04T03:32:42.269Z,7.14
2023-04-04T03:35:10.043Z,7.05
2023-04-04T03:37:39.133Z,6.92
2023-04-04T03:40:09.720Z,6.86
2023-04-04T03:42:37.936Z,6.83
2023-04-04T03:45:07.443Z,6.91
2023-04-04T03:47:35.499Z,7.04
2023-04-04T03:50:03.773Z,7.05
2023-04-04T03:52:31.257Z,6.97
2023-04-04T03:54:59.454Z,6.94
2023-04-04T03:57:28.440Z,6.95
2023-04-04T03:59:56.485Z,6.88
2023-04-04T04:02:24.372Z,6.86
2023-04-04T04:04:53.921Z,6.81
2023-04-04T04:07:21.625Z,6.79
2023-04-04T04:09:49.843Z,6.76
2023-04-04T04:12:17.754Z,6.71
2023-04-04T04:14:45.611Z,6.69
2023-04-04T04:17:13.377Z,6.74
2023-04-04T04:19:41.204Z,6.75
2023-04-04T04:22:09.526Z,6.73
2023-04-04T04:24:37.079Z,6.71
2023-04-04T04:27:05.427Z,6.76
2023-04-04T04:29:33.366Z,6.79
2023-04-04T04:32:01.877Z,6.75
2023-04-04T04:34:29.840Z,6.77
2023-04-04T04:36:57.983Z,6.81
2023-04-04T04:39:26.174Z,6.81
2023-04-04T04:41:53.974Z,6.84
2023-04-04T04:44:22.442Z,6.84
2023-04-04T04:46:50.413Z,6.85
2023-04-04T04:49:17.996Z,6.85
2023-04-04T04:51:45.772Z,6.79
2023-04-04T04:54:13.869Z,6.78
2023-04-04T04:56:41.945Z,6.79
2023-04-04T04:59:11.639Z,6.75
2023-04-04T05:01:39.729Z,6.73
2023-04-04T05:04:07.803Z,6.72
2023-04-04T05:06:35.961Z,6.73
2023-04-04T05:09:05.050Z,6.76
2023-04-04T05:11:33.178Z,6.81
2023-04-04T05:14:00.908Z,6.84
2023-04-04T05:16:29.117Z,6.90
2023-04-04T05:18:57.299Z,6.92
2023-04-04T05:21:25.428Z,6.95
2023-04-04T05:23:53.477Z,6.96
2023-04-04T05:26:21.489Z,7.00
2023-04-04T05:28:49.635Z,7.06
2023-04-04T05:31:17.257Z,7.14
2023-04-04T05:33:45.703Z,7.23
2023-04-04T05:36:13.447Z,7.30
2023-04-04T05:38:41.365Z,7.38
2023-04-04T05:41:09.379Z,7.43
2023-04-04T05:43:37.089Z,7.49
2023-04-04T05:46:05.497Z,7.56
2023-04-04T05:48:33.192Z,7.63
2023-04-04T05:51:01.063Z,7.73
2023-04-04T05:53:28.680Z,7.78
2023-04-04T05:55:56.600Z,7.80
2023-04-04T05:58:24.836Z,7.82
2023-04-04T06:00:52.620Z,7.87
2023-04-04T06:03:22.482Z,7.95
2023-04-04T06:05:53.516Z,8.00
2023-04-04T06:08:21.319Z,7.98
2023-04-04T06:10:48.921Z,8.02
2023-04-04T06:13:16.853Z,8.07
2023-04-04T06:15:44.996Z,8.14
2023-04-04T06:18:13.122Z,8.24
2023-04-04T06:20:41.990Z,8.31
2023-04-04T06:23:10.378Z,8.34
2023-04-04T06:25:38.296Z,8.42
2023-04-04T06:28:06.914Z,8.49
2023-04-04T06:30:40.162Z,8.55
2023-04-04T06:33:07.828Z,8.64
2023-04-04T06:35:35.555Z,8.69
2023-04-04T06:38:04.384Z,8.79
2023-04-04T06:40:32.476Z,8.83
2023-04-04T06:43:00.363Z,8.86
2023-04-04T06:45:28.512Z,8.91
2023-04-04T06:47:56.276Z,8.98
2023-04-04T06:50:24.089Z,9.08
2023-04-04T06:52:52.085Z,9.10
2023-04-04T06:55:20.227Z,9.12
2023-04-04T06:57:48.386Z,9.17
2023-04-04T07:00:19.020Z,9.24
2023-04-04T07:02:47.004Z,9.31
2023-04-04T07:05:17.850Z,9.38
2023-04-04T07:07:47.143Z,9.43
2023-04-04T07:10:15.092Z,9.47
2023-04-04T07:12:43.451Z,9.51
2023-04-04T07:15:13.288Z,9.57
2023-04-04T07:17:41.660Z,9.63
2023-04-04T07:20:10.554Z,9.68
2023-04-04T07:22:39.865Z,9.79
2023-04-04T07:25:09.815Z,9.90
2023-04-04T07:27:37.670Z,9.96
2023-04-04T07:30:05.492Z,10.00
2023-04-04T07:32:35.941Z,10.07
2023-04-04T07:35:05.266Z,10.15
2023-04-04T07:37:33.640Z,10.21
2023-04-04T07:40:01.660Z,10.26
2023-04-04T07:42:31.270Z,10.27
2023-04-04T07:44:59.500Z,10.34
2023-04-04T07:47:27.827Z,10.40
2023-04-04T07:49:55.585Z,10.39
2023-04-04T07:52:23.270Z,10.46
2023-04-04T07:54:51.904Z,10.52
2023-04-04T07:57:20.092Z,10.63
2023-04-04T07:59:48.576Z,10.68
2023-04-04T08:02:17.844Z,10.74
2023-04-04T08:04:46.072Z,10.75
2023-04-04T08:07:14.393Z,10.81
2023-04-04T08:09:42.506Z,10.89
2023-04-04T08:12:09.963Z,10.95
2023-04-04T08:14:37.650Z,11.00
2023-04-04T08:17:05.597Z,10.99
2023-04-04T08:19:33.084Z,11.05
2023-04-04T08:22:01.186Z,11.14
2023-04-04T08:24:29.155Z,11.21
2023-04-04T08:27:04.460Z,11.25
2023-04-04T08:29:33.381Z,11.27
2023-04-04T08:32:01.301Z,11.25
2023-04-04T08:34:28.796Z,11.33
2023-04-04T08:36:57.078Z,11.41
2023-04-04T08:39:25.131Z,11.50
2023-04-04T08:41:58.865Z,11.59
2023-04-04T08:44:27.593Z,11.66
2023-04-04T08:46:55.288Z,11.71
2023-04-04T08:49:22.255Z,11.81
2023-04-04T08:51:49.389Z,11.92
2023-04-04T08:54:17.875Z,12.04
2023-04-04T08:56:46.037Z,12.14
2023-04-04T08:59:15.745Z,12.19
2023-04-04T09:01:43.878Z,12.23
2023-04-04T09:04:11.525Z,12.26
2023-04-04T09:06:38.651Z,12.45
2023-04-04T09:09:06.769Z,12.52
2023-04-04T09:11:35.091Z,12.57
2023-04-04T09:14:05.144Z,12.63
2023-04-04T09:16:33.258Z,12.67
2023-04-04T09:19:00.942Z,12.65
2023-04-04T09:21:29.345Z,12.66
2023-04-04T09:24:01.098Z,12.73
2023-04-04T09:26:28.698Z,12.74
2023-04-04T09:28:56.925Z,12.81
2023-04-04T09:31:25.012Z,12.85
2023-04-04T09:33:52.776Z,12.89
2023-04-04T09:36:20.752Z,12.88
2023-04-04T09:38:49.561Z,12.99
2023-04-04T09:41:16.995Z,13.09
2023-04-04T09:43:48.568Z,13.09
2023-04-04T09:46:16.263Z,13.10
2023-04-04T09:48:43.603Z,13.07
2023-04-04T09:51:13.423Z,13.10
2023-04-04T09:53:42.458Z,13.13
2023-04-04T09:56:12.063Z,13.25
2023-04-04T09:58:44.281Z,13.30
2023-04-04T10:01:16.652Z,13.27
2023-04-04T10:03:44.254Z,13.24
2023-04-04T10:06:12.488Z,13.20
2023-04-04T10:08:40.674Z,13.29
2023-04-04T10:11:11.277Z,13.35
2023-04-04T10:13:44.766Z,13.30
2023-04-04T10:16:12.390Z,13.40
2023-04-04T10:18:39.831Z,13.47
2023-04-04T10:23:39.094Z,13.63
2023-04-04T10:26:06.742Z,13.52
2023-04-04T10:28:34.578Z,13.54
2023-04-04T10:31:18.299Z,13.64
2023-04-04T10:34:12.625Z,13.69
2023-04-04T10:36:46.081Z,13.76
2023-04-04T10:39:23.925Z,13.89
2023-04-04T10:41:52.871Z,13.87
2023-04-04T10:45:06.057Z,13.87
2023-04-04T10:47:40.882Z,13.72
2023-04-04T10:50:13.646Z,13.76
2023-04-04T10:52:42.210Z,14.03
2023-04-04T10:55:11.115Z,15.00
2023-04-04T10:57:46.389Z,16.54
2023-04-04T11:00:18.336Z,18.30
2023-04-04T11:02:48.336Z,19.73
2023-04-04T11:05:31.746Z,20.89
2023-04-04T11:10:42.185Z,22.44
2023-04-04T11:13:22.890Z,23.15
2023-04-04T11:16:00.339Z,23.52
2023-04-04T11:18:34.201Z,23.42
2023-04-04T11:21:08.089Z,23.58
2023-04-04T11:23:50.019Z,23.44
2023-04-04T11:26:46.272Z,23.04
2023-04-04T11:29:21.249Z,22.52
2023-04-04T11:31:49.828Z,22.67
2023-04-04T11:34:30.540Z,22.22
2023-04-04T11:37:01.816Z,21.72
2023-04-04T11:39:33.831Z,21.46
2023-04-04T11:42:09.044Z,20.98
2023-04-04T11:45:03.630Z,20.54
2023-04-04T11:47:31.664Z,20.18
2023-04-04T11:50:01.597Z,19.90
2023-04-04T11:52:35.591Z,19.68
2023-04-04T11:55:03.634Z,19.47
2023-04-04T11:57:31.296Z,19.09
2023-04-04T11:59:59.028Z,18.66
2023-04-04T12:02:34.757Z,18.36
2023-04-04T12:05:02.856Z,18.32
2023-04-04T12:07:29.639Z,18.49
2023-04-04T12:09:57.850Z,18.86
2023-04-04T12:12:31.504Z,19.55
2023-04-04T12:15:10.487Z,19.85
2023-04-04T12:17:44.481Z,20.39
2023-04-04T12:20:13.223Z,20.65
2023-04-04T12:22:46.781Z,20.64
2023-04-04T12:25:14.523Z,20.78
2023-04-04T12:27:42.959Z,21.36
2023-04-04T12:30:15.860Z,21.75
2023-04-04T12:32:47.332Z,21.72
2023-04-04T12:35:15.792Z,21.60
2023-04-04T12:38:10.874Z,21.34
2023-04-04T12:40:38.654Z,21.44
2023-04-04T12:43:27.969Z,22.03
2023-04-04T12:45:55.794Z,22.34
2023-04-04T12:48:27.493Z,22.16
2023-04-04T12:50:59.222Z,22.14
2023-04-04T12:53:29.413Z,22.07
2023-04-04T12:56:00.299Z,21.98
2023-04-04T12:58:27.163Z,22.27
2023-04-04T13:00:55.634Z,22.01
2023-04-04T13:03:26.229Z,22.23
2023-04-04T13:05:54.257Z,22.80
2023-04-04T13:08:21.398Z,23.19
2023-04-04T13:11:05.257Z,23.03
2023-04-04T13:13:40.707Z,23.14
2023-04-04T13:16:09.077Z,23.39
2023-04-04T13:18:44.276Z,23.71
2023-04-04T13:21:13.262Z,23.69
2023-04-04T13:23:41.399Z,24.03
2023-04-04T13:26:09.458Z,24.47
2023-04-04T13:28:37.730Z,24.69
2023-04-04T13:31:05.689Z,24.57
2023-04-04T13:33:33.734Z,24.62
2023-04-04T13:36:01.493Z,24.14
2023-04-04T13:38:29.902Z,23.65
2023-04-04T13:41:00.935Z,23.39
2023-04-04T13:43:28.789Z,23.39
2023-04-04T13:45:56.352Z,23.51
2023-04-04T13:48:24.513Z,23.54
2023-04-04T13:50:53.399Z,23.54
2023-04-04T13:53:21.284Z,23.53
2023-04-04T13:58:20.605Z,24.33
2023-04-04T14:00:50.684Z,24.36
2023-04-04T14:03:18.855Z,24.62
2023-04-04T14:05:46.964Z,24.87
2023-04-04T14:08:14.809Z,24.74
2023-04-04T14:10:42.428Z,24.60
2023-04-04T14:13:10.426Z,24.50
2023-04-04T14:15:39.937Z,24.52
2023-04-04T14:18:07.951Z,24.86
2023-04-04T14:20:41.612Z,25.48
2023-04-04T14:23:09.574Z,25.73
2023-04-04T14:25:37.103Z,25.64
2023-04-04T14:28:05.316Z,25.52
2023-04-04T14:30:33.525Z,25.13
2023-04-04T14:33:01.355Z,24.60
2023-04-04T14:35:29.630Z,24.28
2023-04-04T14:37:59.788Z,24.09
2023-04-04T14:40:29.617Z,24.01
2023-04-04T14:42:57.226Z,24.01
2023-04-04T14:45:25.370Z,24.59
2023-04-04T14:47:53.620Z,25.31
2023-04-04T14:50:21.207Z,25.39
2023-04-04T14:52:51.248Z,25.47
2023-04-04T14:55:19.677Z,25.17
2023-04-04T14:58:01.334Z,24.98
2023-04-04T15:00:30.749Z,24.91
2023-04-04T15:02:58.984Z,24.97
2023-04-04T15:05:27.250Z,24.42
2023-04-04T15:07:55.846Z,23.77
2023-04-04T15:10:23.971Z,22.88
2023-04-04T15:12:51.869Z,22.42
2023-04-04T15:15:20.621Z,21.80
2023-04-04T15:17:50.203Z,20.99
2023-04-04T15:20:18.450Z,20.69
2023-04-04T15:22:46.554Z,20.44
2023-04-04T15:25:14.123Z,20.45
2023-04-04T15:27:42.045Z,20.33
2023-04-04T15:30:13.168Z,20.30
2023-04-04T15:32:40.838Z,20.32
2023-04-04T15:35:16.132Z,20.19
2023-04-04T15:37:44.504Z,20.27
2023-04-04T15:40:13.418Z,20.26
2023-04-04T15:42:41.483Z,20.37
2023-04-04T15:45:11.380Z,20.67
2023-04-04T15:47:40.232Z,21.23
2023-04-04T15:50:11.135Z,21.81
2023-04-04T15:52:39.078Z,21.99
2023-04-04T15:55:11.799Z,22.50
2023-04-04T15:57:39.677Z,23.00
2023-04-04T16:00:09.546Z,23.08
2023-04-04T16:02:37.471Z,22.91
2023-04-04T16:05:06.213Z,22.26
2023-04-04T16:07:34.018Z,21.55
2023-04-04T16:10:02.201Z,21.28
2023-04-04T16:12:30.214Z,20.73
2023-04-04T16:14:57.719Z,19.95
2023-04-04T16:17:26.276Z,19.59
2023-04-04T16:19:53.971Z,19.13
2023-04-04T16:22:22.024Z,18.70
2023-04-04T16:24:50.156Z,18.42
2023-04-04T16:27:17.810Z,18.02
2023-04-04T16:29:46.103Z,17.86
2023-04-04T16:32:14.262Z,17.85
2023-04-04T16:34:41.870Z,17.98
2023-04-04T16:37:11.161Z,18.08
2023-04-04T16:39:38.697Z,18.23
2023-04-04T16:42:06.921Z,18.29
2023-04-04T16:44:34.852Z,18.36
2023-04-04T16:47:02.887Z,18.74
2023-04-04T16:49:30.760Z,19.21
2023-04-04T16:51:58.574Z,19.91
2023-04-04T16:54:26.655Z,20.12
2023-04-04T16:56:54.528Z,19.79
2023-04-04T16:59:22.741Z,19.21
2023-04-04T17:01:50.470Z,18.77
2023-04-04T17:04:18.672Z,18.55
2023-04-04T17:06:47.302Z,17.99
2023-04-04T17:09:16.248Z,17.29
2023-04-04T17:11:47.063Z,16.77
2023-04-04T17:14:16.412Z,16.27
2023-04-04T17:16:44.904Z,15.94
2023-04-04T17:19:12.980Z,15.58
2023-04-04T17:21:41.188Z,15.37
2023-04-04T17:24:09.333Z,15.10
2023-04-04T17:26:38.256Z,14.92
2023-04-04T17:29:06.847Z,14.61
2023-04-04T17:31:34.553Z,14.42
2023-04-04T17:34:02.972Z,14.29
2023-04-04T17:36:32.179Z,14.14
2023-04-04T17:39:01.276Z,13.99
2023-04-04T17:41:29.386Z,13.83
2023-04-04T17:43:57.296Z,13.69
2023-04-04T17:46:25.901Z,13.52
2023-04-04T17:48:53.868Z,13.35
2023-04-04T17:51:21.692Z,13.26
2023-04-04T17:53:51.328Z,13.17
2023-04-04T17:56:19.170Z,13.08
2023-04-04T17:58:48.094Z,12.99
2023-04-04T18:01:43.360Z,12.79
2023-04-04T18:04:11.933Z,12.57
2023-04-04T18:06:41.899Z,12.50
2023-04-04T18:09:11.045Z,12.42
2023-04-04T18:11:39.145Z,12.37
2023-04-04T18:14:06.964Z,12.35
2023-04-04T18:16:39.657Z,12.31
2023-04-04T18:19:09.587Z,12.26
2023-04-04T18:21:38.524Z,12.19
2023-04-04T18:24:08.026Z,12.07
2023-04-04T18:26:36.146Z,12.01
2023-04-04T18:29:04.312Z,11.98
2023-04-04T18:31:31.581Z,11.92
2023-04-04T18:33:59.500Z,11.87
2023-04-04T18:36:27.578Z,11.86
2023-04-04T18:38:55.214Z,11.85
2023-04-04T18:41:22.302Z,11.82
2023-04-04T18:43:50.583Z,11.77
2023-04-04T18:46:19.113Z,11.71
2023-04-04T18:48:51.072Z,11.65
2023-04-04T18:51:20.476Z,11.63
2023-04-04T18:53:49.417Z,11.59
2023-04-04T18:56:17.651Z,11.59
2023-04-04T18:58:45.672Z,11.58
2023-04-04T19:01:13.595Z,11.57
2023-04-04T19:03:43.156Z,11.57
2023-04-04T19:06:11.089Z,11.53
2023-04-04T19:08:43.228Z,11.51
2023-04-04T19:11:11.098Z,11.54
2023-04-04T19:13:38.605Z,11.46
2023-04-04T19:16:06.601Z,11.34
2023-04-04T19:18:34.730Z,11.29
2023-04-04T19:21:02.541Z,11.25
2023-04-04T19:23:29.956Z,11.24
2023-04-04T19:26:02.032Z,11.19
2023-04-04T19:28:29.478Z,11.13
2023-04-04T19:30:57.628Z,11.05
2023-04-04T19:33:28.539Z,11.06
2023-04-04T19:36:01.396Z,11.06
2023-04-04T19:38:30.628Z,11.01
2023-04-04T19:41:04.292Z,11.01
2023-04-04T19:43:31.601Z,11.04
2023-04-04T19:46:09.572Z,10.96
2023-04-04T19:48:36.345Z,10.82
2023-04-04T19:51:22.825Z,10.69
2023-04-04T19:53:51.793Z,10.58
2023-04-04T19:56:20.555Z,10.53
2023-04-04T19:58:49.314Z,10.52
2023-04-04T20:01:21.529Z,10.44
2023-04-04T20:03:49.516Z,10.33
2023-04-04T20:06:29.945Z,10.24
2023-04-04T20:09:01.213Z,10.19
2023-04-04T20:11:32.333Z,10.16
2023-04-04T20:14:01.283Z,10.11
2023-04-04T20:16:29.910Z,10.06
2023-04-04T20:18:59.265Z,10.01
2023-04-04T20:21:28.506Z,9.98
2023-04-04T20:24:01.283Z,9.91
2023-04-04T20:26:46.396Z,9.90
2023-04-04T20:29:15.441Z,9.85
2023-04-04T20:31:47.641Z,9.65
2023-04-04T20:34:27.721Z,9.65
2023-04-04T20:36:55.463Z,9.64
2023-04-04T20:39:53.134Z,9.56
2023-04-04T20:42:51.002Z,9.49
2023-04-04T20:45:27.281Z,9.52
2023-04-04T20:47:58.391Z,9.48
2023-04-04T20:50:27.308Z,9.50
2023-04-04T20:53:00.781Z,9.53
2023-04-04T20:55:29.663Z,9.58
2023-04-04T20:58:06.950Z,9.60
2023-04-04T21:00:36.753Z,9.55
2023-04-04T21:03:25.450Z,9.46
2023-04-04T21:06:17.912Z,9.39
2023-04-04T21:08:48.727Z,9.24
2023-04-04T21:11:39.479Z,9.15
2023-04-04T21:14:07.408Z,9.18
2023-04-04T21:16:34.701Z,9.24
2023-04-04T21:19:02.530Z,9.28
2023-04-04T21:21:29.876Z,9.29
2023-04-04T21:23:57.991Z,9.32
2023-04-04T21:26:36.932Z,9.34
2023-04-04T21:29:04.553Z,9.35
2023-04-04T21:31:59.041Z,9.48
2023-04-04T21:34:27.338Z,9.61
2023-04-04T21:37:01.463Z,9.65
2023-04-04T21:39:30.068Z,9.71
2023-04-04T21:42:03.695Z,9.73
2023-04-04T21:44:32.918Z,9.77
2023-04-04T21:47:00.595Z,9.79
2023-04-04T21:49:28.379Z,9.85
2023-04-04T21:51:56.412Z,9.92
2023-04-04T21:54:24.027Z,9.94
2023-04-04T21:56:52.117Z,9.99
2023-04-04T21:59:20.176Z,10.00
2023-04-04T22:01:48.452Z,9.96
2023-04-04T22:04:16.468Z,9.90
2023-04-04T22:06:44.366Z,9.92
2023-04-04T22:09:11.920Z,9.87
2023-04-04T22:11:44.214Z,9.86
2023-04-04T22:14:17.475Z,9.86
2023-04-04T22:16:45.917Z,9.81
2023-04-04T22:19:14.346Z,9.78
2023-04-04T22:21:47.149Z,9.73
2023-04-04T22:24:15.989Z,9.65
2023-04-04T22:26:46.011Z,9.58
2023-04-04T22:29:14.458Z,9.51
2023-04-04T22:31:42.206Z,9.47
2023-04-04T22:34:10.787Z,9.44
2023-04-04T22:36:43.882Z,9.38
2023-04-04T22:39:12.125Z,9.32
2023-04-04T22:41:39.731Z,9.27
2023-04-04T22:44:07.987Z,9.22
2023-04-04T22:46:36.168Z,9.19
2023-04-04T22:49:07.226Z,9.13
2023-04-04T22:51:44.057Z,9.13
2023-04-04T22:54:14.471Z,9.10
2023-04-04T22:56:42.302Z,9.02
2023-04-04T22:59:10.287Z,8.98
2023-04-04T23:01:38.286Z,8.92
2023-04-04T23:04:06.436Z,8.90
2023-04-04T23:06:34.621Z,8.80
2023-04-04T23:09:03.201Z,8.77
2023-04-04T23:11:31.521Z,8.74
2023-04-04T23:14:00.402Z,8.67
2023-04-04T23:16:28.930Z,8.64
2023-04-04T23:18:57.236Z,8.62
2023-04-04T23:21:25.184Z,8.56
2023-04-04T23:23:52.835Z,8.52
2023-04-04T23:26:20.481Z,8.48
2023-04-04T23:28:48.695Z,8.40
2023-04-04T23:31:17.003Z,8.36
2023-04-04T23:33:44.645Z,8.30
2023-04-04T23:36:12.672Z,8.27
2023-04-04T23:38:40.423Z,8.26
2023-04-04T23:41:08.527Z,8.22
2023-04-04T23:43:36.269Z,8.17
2023-04-04T23:46:03.218Z,8.12
2023-04-04T23:48:31.279Z,8.08
2023-04-04T23:51:01.816Z,8.04
2023-04-04T23:53:29.759Z,7.99
2023-04-04T23:55:57.901Z,7.91
2023-04-04T23:58:25.934Z,7.83
